sensor_id;sensor_type;location;lat;lon;timestamp;P1;durP1;ratioP1;P2;durP2;ratioP2
25207;SDS011;13153;52.316;21.166;2023-10-13T00:00:33;14.52;;;6.28;;
25207;SDS011;13153;52.316;21.166;2023-10-13T00:03:05;12.45;;;6.00;;
25207;SDS011;13153;52.316;21.166;2023-10-13T00:05:40;14.70;;;6.80;;
25207;SDS011;13153;52.316;21.166;2023-10-13T00:08:07;15.57;;;6.43;;
25207;SDS011;13153;52.316;21.166;2023-10-13T00:10:35;17.40;;;6.85;;
25207;SDS011;13153;52.316;21.166;2023-10-13T00:13:02;14.85;;;6.75;;
25207;SDS011;13153;52.316;21.166;2023-10-13T00:15:41;16.48;;;7.22;;
25207;SDS011;13153;52.316;21.166;2023-10-13T00:18:22;14.77;;;6.70;;
25207;SDS011;13153;52.316;21.166;2023-10-13T00:20:58;14.88;;;7.13;;
25207;SDS011;13153;52.316;21.166;2023-10-13T00:23:37;16.02;;;7.25;;
25207;SDS011;13153;52.316;21.166;2023-10-13T00:26:34;16.42;;;7.38;;
25207;SDS011;13153;52.316;21.166;2023-10-13T00:29:02;14.25;;;7.10;;
25207;SDS011;13153;52.316;21.166;2023-10-13T00:31:32;21.40;;;8.55;;
25207;SDS011;13153;52.316;21.166;2023-10-13T00:34:03;17.85;;;7.85;;
25207;SDS011;13153;52.316;21.166;2023-10-13T00:36:50;17.55;;;7.72;;
25207;SDS011;13153;52.316;21.166;2023-10-13T00:39:34;18.92;;;7.90;;
25207;SDS011;13153;52.316;21.166;2023-10-13T00:42:09;23.20;;;8.35;;
25207;SDS011;13153;52.316;21.166;2023-10-13T00:44:46;16.48;;;7.95;;
25207;SDS011;13153;52.316;21.166;2023-10-13T00:47:17;21.57;;;8.63;;
25207;SDS011;13153;52.316;21.166;2023-10-13T00:50:03;20.55;;;8.57;;
25207;SDS011;13153;52.316;21.166;2023-10-13T00:52:30;16.92;;;7.75;;
25207;SDS011;13153;52.316;21.166;2023-10-13T00:55:00;18.52;;;7.80;;
25207;SDS011;13153;52.316;21.166;2023-10-13T00:57:29;17.30;;;8.45;;
25207;SDS011;13153;52.316;21.166;2023-10-13T00:59:55;18.75;;;8.02;;
25207;SDS011;13153;52.316;21.166;2023-10-13T01:02:22;21.55;;;8.98;;
25207;SDS011;13153;52.316;21.166;2023-10-13T01:05:01;23.45;;;8.85;;
25207;SDS011;13153;52.316;21.166;2023-10-13T01:07:35;15.90;;;8.15;;
25207;SDS011;13153;52.316;21.166;2023-10-13T01:10:04;19.50;;;9.38;;
25207;SDS011;13153;52.316;21.166;2023-10-13T01:12:38;19.60;;;9.07;;
25207;SDS011;13153;52.316;21.166;2023-10-13T01:15:04;31.98;;;14.90;;
25207;SDS011;13153;52.316;21.166;2023-10-13T01:17:33;36.25;;;16.25;;
25207;SDS011;13153;52.316;21.166;2023-10-13T01:20:02;34.65;;;15.88;;
25207;SDS011;13153;52.316;21.166;2023-10-13T01:22:33;35.60;;;16.77;;
25207;SDS011;13153;52.316;21.166;2023-10-13T01:25:01;41.13;;;19.58;;
25207;SDS011;13153;52.316;21.166;2023-10-13T01:27:35;43.20;;;19.27;;
25207;SDS011;13153;52.316;21.166;2023-10-13T01:30:03;35.70;;;16.45;;
25207;SDS011;13153;52.316;21.166;2023-10-13T01:32:34;32.83;;;13.50;;
25207;SDS011;13153;52.316;21.166;2023-10-13T01:35:06;33.30;;;15.80;;
25207;SDS011;13153;52.316;21.166;2023-10-13T01:37:32;29.83;;;13.10;;
25207;SDS011;13153;52.316;21.166;2023-10-13T01:39:58;21.92;;;12.32;;
25207;SDS011;13153;52.316;21.166;2023-10-13T01:42:24;22.67;;;12.18;;
25207;SDS011;13153;52.316;21.166;2023-10-13T01:44:50;26.08;;;12.13;;
25207;SDS011;13153;52.316;21.166;2023-10-13T01:47:16;22.65;;;10.85;;
25207;SDS011;13153;52.316;21.166;2023-10-13T01:49:43;21.42;;;11.43;;
25207;SDS011;13153;52.316;21.166;2023-10-13T01:52:12;20.02;;;10.32;;
25207;SDS011;13153;52.316;21.166;2023-10-13T01:54:43;21.20;;;9.82;;
25207;SDS011;13153;52.316;21.166;2023-10-13T01:57:14;20.25;;;9.60;;
25207;SDS011;13153;52.316;21.166;2023-10-13T01:59:51;17.45;;;8.77;;
25207;SDS011;13153;52.316;21.166;2023-10-13T02:04:55;14.48;;;7.25;;
25207;SDS011;13153;52.316;21.166;2023-10-13T02:07:22;16.33;;;7.47;;
25207;SDS011;13153;52.316;21.166;2023-10-13T02:09:59;16.63;;;7.15;;
25207;SDS011;13153;52.316;21.166;2023-10-13T02:12:29;16.80;;;7.20;;
25207;SDS011;13153;52.316;21.166;2023-10-13T02:15:07;16.90;;;7.18;;
25207;SDS011;13153;52.316;21.166;2023-10-13T02:17:46;13.38;;;6.97;;
25207;SDS011;13153;52.316;21.166;2023-10-13T02:20:16;14.02;;;7.40;;
25207;SDS011;13153;52.316;21.166;2023-10-13T02:22:55;12.90;;;6.60;;
25207;SDS011;13153;52.316;21.166;2023-10-13T02:25:21;14.00;;;7.50;;
25207;SDS011;13153;52.316;21.166;2023-10-13T02:28:22;13.43;;;6.80;;
25207;SDS011;13153;52.316;21.166;2023-10-13T02:30:53;13.82;;;7.13;;
25207;SDS011;13153;52.316;21.166;2023-10-13T02:33:19;14.18;;;7.05;;
25207;SDS011;13153;52.316;21.166;2023-10-13T02:35:54;12.50;;;7.18;;
25207;SDS011;13153;52.316;21.166;2023-10-13T02:38:28;19.08;;;8.07;;
25207;SDS011;13153;52.316;21.166;2023-10-13T02:41:04;18.30;;;10.07;;
25207;SDS011;13153;52.316;21.166;2023-10-13T02:43:36;24.40;;;12.07;;
25207;SDS011;13153;52.316;21.166;2023-10-13T02:46:03;20.45;;;11.55;;
25207;SDS011;13153;52.316;21.166;2023-10-13T02:48:29;23.83;;;11.85;;
25207;SDS011;13153;52.316;21.166;2023-10-13T02:51:05;20.58;;;11.00;;
25207;SDS011;13153;52.316;21.166;2023-10-13T02:53:49;20.45;;;10.85;;
25207;SDS011;13153;52.316;21.166;2023-10-13T02:58:51;17.88;;;8.98;;
25207;SDS011;13153;52.316;21.166;2023-10-13T03:01:33;15.15;;;9.10;;
25207;SDS011;13153;52.316;21.166;2023-10-13T03:04:01;19.58;;;9.02;;
25207;SDS011;13153;52.316;21.166;2023-10-13T03:06:28;20.25;;;9.52;;
25207;SDS011;13153;52.316;21.166;2023-10-13T03:09:04;19.05;;;9.75;;
25207;SDS011;13153;52.316;21.166;2023-10-13T03:11:42;19.30;;;11.15;;
25207;SDS011;13153;52.316;21.166;2023-10-13T03:14:14;19.00;;;11.77;;
25207;SDS011;13153;52.316;21.166;2023-10-13T03:17:05;22.80;;;11.93;;
25207;SDS011;13153;52.316;21.166;2023-10-13T03:19:31;16.38;;;9.90;;
25207;SDS011;13153;52.316;21.166;2023-10-13T03:21:58;18.85;;;10.48;;
25207;SDS011;13153;52.316;21.166;2023-10-13T03:24:32;19.40;;;11.68;;
25207;SDS011;13153;52.316;21.166;2023-10-13T03:27:01;24.08;;;13.07;;
25207;SDS011;13153;52.316;21.166;2023-10-13T03:29:40;23.98;;;12.43;;
25207;SDS011;13153;52.316;21.166;2023-10-13T03:32:09;20.70;;;11.15;;
25207;SDS011;13153;52.316;21.166;2023-10-13T03:34:37;21.27;;;11.88;;
25207;SDS011;13153;52.316;21.166;2023-10-13T03:37:37;21.63;;;10.55;;
25207;SDS011;13153;52.316;21.166;2023-10-13T03:45:41;15.00;;;9.55;;
25207;SDS011;13153;52.316;21.166;2023-10-13T03:48:13;20.63;;;9.85;;
25207;SDS011;13153;52.316;21.166;2023-10-13T03:50:54;17.67;;;9.18;;
25207;SDS011;13153;52.316;21.166;2023-10-13T03:53:36;19.00;;;8.85;;
25207;SDS011;13153;52.316;21.166;2023-10-13T03:56:18;18.00;;;8.35;;
25207;SDS011;13153;52.316;21.166;2023-10-13T03:58:55;17.08;;;8.05;;
25207;SDS011;13153;52.316;21.166;2023-10-13T04:01:30;20.23;;;8.48;;
25207;SDS011;13153;52.316;21.166;2023-10-13T04:04:00;21.48;;;9.40;;
25207;SDS011;13153;52.316;21.166;2023-10-13T04:06:34;20.80;;;9.95;;
25207;SDS011;13153;52.316;21.166;2023-10-13T04:14:31;23.75;;;10.77;;
25207;SDS011;13153;52.316;21.166;2023-10-13T04:17:20;19.48;;;9.45;;
25207;SDS011;13153;52.316;21.166;2023-10-13T04:19:54;19.15;;;9.57;;
25207;SDS011;13153;52.316;21.166;2023-10-13T04:22:32;23.90;;;9.98;;
25207;SDS011;13153;52.316;21.166;2023-10-13T04:25:25;19.05;;;9.50;;
25207;SDS011;13153;52.316;21.166;2023-10-13T04:28:08;21.77;;;11.20;;
25207;SDS011;13153;52.316;21.166;2023-10-13T04:31:02;25.17;;;12.40;;
25207;SDS011;13153;52.316;21.166;2023-10-13T04:33:38;30.77;;;16.98;;
25207;SDS011;13153;52.316;21.166;2023-10-13T04:36:17;34.33;;;17.40;;
25207;SDS011;13153;52.316;21.166;2023-10-13T04:38:56;31.42;;;15.30;;
25207;SDS011;13153;52.316;21.166;2023-10-13T04:41:37;29.10;;;14.45;;
25207;SDS011;13153;52.316;21.166;2023-10-13T04:44:08;23.48;;;12.85;;
25207;SDS011;13153;52.316;21.166;2023-10-13T04:47:00;22.83;;;12.45;;
25207;SDS011;13153;52.316;21.166;2023-10-13T04:49:26;22.48;;;12.00;;
25207;SDS011;13153;52.316;21.166;2023-10-13T04:52:15;22.75;;;11.10;;
25207;SDS011;13153;52.316;21.166;2023-10-13T04:55:00;20.75;;;10.20;;
25207;SDS011;13153;52.316;21.166;2023-10-13T04:57:49;19.35;;;9.98;;
25207;SDS011;13153;52.316;21.166;2023-10-13T05:00:25;24.45;;;11.20;;
25207;SDS011;13153;52.316;21.166;2023-10-13T05:03:09;19.35;;;10.80;;
25207;SDS011;13153;52.316;21.166;2023-10-13T05:05:54;21.45;;;11.80;;
25207;SDS011;13153;52.316;21.166;2023-10-13T05:08:51;24.42;;;12.27;;
25207;SDS011;13153;52.316;21.166;2023-10-13T05:11:36;19.17;;;11.10;;
25207;SDS011;13153;52.316;21.166;2023-10-13T05:14:27;23.77;;;11.07;;
25207;SDS011;13153;52.316;21.166;2023-10-13T05:17:12;23.80;;;11.23;;
25207;SDS011;13153;52.316;21.166;2023-10-13T05:19:57;20.05;;;10.23;;
25207;SDS011;13153;52.316;21.166;2023-10-13T05:22:42;20.25;;;10.55;;
25207;SDS011;13153;52.316;21.166;2023-10-13T05:25:26;17.45;;;9.48;;
25207;SDS011;13153;52.316;21.166;2023-10-13T05:28:10;16.45;;;9.35;;
25207;SDS011;13153;52.316;21.166;2023-10-13T05:30:54;18.75;;;11.00;;
25207;SDS011;13153;52.316;21.166;2023-10-13T05:33:43;15.05;;;8.45;;
25207;SDS011;13153;52.316;21.166;2023-10-13T05:36:27;14.02;;;8.00;;
25207;SDS011;13153;52.316;21.166;2023-10-13T05:39:11;15.68;;;8.60;;
25207;SDS011;13153;52.316;21.166;2023-10-13T05:41:55;17.45;;;9.15;;
25207;SDS011;13153;52.316;21.166;2023-10-13T05:44:40;15.18;;;8.98;;
25207;SDS011;13153;52.316;21.166;2023-10-13T05:47:24;16.48;;;8.38;;
25207;SDS011;13153;52.316;21.166;2023-10-13T05:50:12;16.00;;;9.02;;
25207;SDS011;13153;52.316;21.166;2023-10-13T05:52:48;15.63;;;8.70;;
25207;SDS011;13153;52.316;21.166;2023-10-13T05:55:27;19.70;;;8.45;;
25207;SDS011;13153;52.316;21.166;2023-10-13T05:58:12;20.13;;;10.52;;
25207;SDS011;13153;52.316;21.166;2023-10-13T06:03:41;19.52;;;10.05;;
25207;SDS011;13153;52.316;21.166;2023-10-13T06:06:26;21.10;;;10.32;;
25207;SDS011;13153;52.316;21.166;2023-10-13T06:09:10;17.60;;;10.00;;
25207;SDS011;13153;52.316;21.166;2023-10-13T06:11:55;17.73;;;9.85;;
25207;SDS011;13153;52.316;21.166;2023-10-13T06:14:39;18.88;;;10.15;;
25207;SDS011;13153;52.316;21.166;2023-10-13T06:17:23;17.58;;;9.30;;
25207;SDS011;13153;52.316;21.166;2023-10-13T06:20:07;20.50;;;10.38;;
25207;SDS011;13153;52.316;21.166;2023-10-13T06:22:52;18.45;;;10.13;;
25207;SDS011;13153;52.316;21.166;2023-10-13T06:25:37;17.98;;;11.43;;
25207;SDS011;13153;52.316;21.166;2023-10-13T06:28:22;21.17;;;11.27;;
25207;SDS011;13153;52.316;21.166;2023-10-13T06:31:06;18.58;;;11.38;;
25207;SDS011;13153;52.316;21.166;2023-10-13T06:33:37;18.77;;;10.85;;
25207;SDS011;13153;52.316;21.166;2023-10-13T06:36:09;20.10;;;10.90;;
25207;SDS011;13153;52.316;21.166;2023-10-13T06:38:38;21.00;;;11.40;;
25207;SDS011;13153;52.316;21.166;2023-10-13T06:41:07;16.15;;;10.70;;
25207;SDS011;13153;52.316;21.166;2023-10-13T06:43:33;15.10;;;10.35;;
25207;SDS011;13153;52.316;21.166;2023-10-13T06:46:11;15.68;;;9.65;;
25207;SDS011;13153;52.316;21.166;2023-10-13T06:48:48;15.07;;;9.90;;
25207;SDS011;13153;52.316;21.166;2023-10-13T06:51:18;16.33;;;9.00;;
25207;SDS011;13153;52.316;21.166;2023-10-13T06:53:50;13.43;;;9.13;;
25207;SDS011;13153;52.316;21.166;2023-10-13T06:56:21;13.77;;;8.30;;
25207;SDS011;13153;52.316;21.166;2023-10-13T06:58:51;10.65;;;8.13;;
25207;SDS011;13153;52.316;21.166;2023-10-13T07:01:24;13.23;;;8.60;;
25207;SDS011;13153;52.316;21.166;2023-10-13T07:03:53;16.30;;;8.52;;
25207;SDS011;13153;52.316;21.166;2023-10-13T07:06:20;13.90;;;9.02;;
25207;SDS011;13153;52.316;21.166;2023-10-13T07:08:47;12.45;;;8.05;;
25207;SDS011;13153;52.316;21.166;2023-10-13T07:11:25;13.98;;;8.90;;
25207;SDS011;13153;52.316;21.166;2023-10-13T07:14:02;15.05;;;8.73;;
25207;SDS011;13153;52.316;21.166;2023-10-13T07:16:57;13.07;;;8.40;;
25207;SDS011;13153;52.316;21.166;2023-10-13T07:19:25;14.35;;;8.15;;
25207;SDS011;13153;52.316;21.166;2023-10-13T07:21:54;14.73;;;8.80;;
25207;SDS011;13153;52.316;21.166;2023-10-13T07:24:28;13.43;;;8.35;;
25207;SDS011;13153;52.316;21.166;2023-10-13T07:27:00;12.43;;;8.35;;
25207;SDS011;13153;52.316;21.166;2023-10-13T07:29:30;13.82;;;8.32;;
25207;SDS011;13153;52.316;21.166;2023-10-13T07:32:00;13.25;;;8.20;;
25207;SDS011;13153;52.316;21.166;2023-10-13T07:34:28;10.68;;;7.53;;
25207;SDS011;13153;52.316;21.166;2023-10-13T07:36:57;16.65;;;9.10;;
25207;SDS011;13153;52.316;21.166;2023-10-13T07:39:28;14.55;;;7.78;;
25207;SDS011;13153;52.316;21.166;2023-10-13T07:41:59;13.93;;;7.50;;
25207;SDS011;13153;52.316;21.166;2023-10-13T07:44:48;13.10;;;7.53;;
25207;SDS011;13153;52.316;21.166;2023-10-13T07:47:14;11.73;;;7.25;;
25207;SDS011;13153;52.316;21.166;2023-10-13T07:49:43;14.30;;;7.53;;
25207;SDS011;13153;52.316;21.166;2023-10-13T07:52:09;15.90;;;8.15;;
25207;SDS011;13153;52.316;21.166;2023-10-13T07:54:48;14.23;;;8.02;;
25207;SDS011;13153;52.316;21.166;2023-10-13T07:57:36;13.88;;;7.90;;
25207;SDS011;13153;52.316;21.166;2023-10-13T08:00:18;14.40;;;7.97;;
25207;SDS011;13153;52.316;21.166;2023-10-13T08:03:03;15.25;;;8.43;;
25207;SDS011;13153;52.316;21.166;2023-10-13T08:05:45;16.92;;;8.48;;
25207;SDS011;13153;52.316;21.166;2023-10-13T08:08:39;15.38;;;7.93;;
25207;SDS011;13153;52.316;21.166;2023-10-13T08:11:12;16.83;;;9.50;;
25207;SDS011;13153;52.316;21.166;2023-10-13T08:13:49;15.77;;;8.68;;
25207;SDS011;13153;52.316;21.166;2023-10-13T08:16:22;19.73;;;9.32;;
25207;SDS011;13153;52.316;21.166;2023-10-13T08:18:49;20.75;;;10.55;;
25207;SDS011;13153;52.316;21.166;2023-10-13T08:21:15;18.77;;;10.75;;
25207;SDS011;13153;52.316;21.166;2023-10-13T08:23:43;22.60;;;10.15;;
25207;SDS011;13153;52.316;21.166;2023-10-13T08:26:21;16.40;;;9.48;;
25207;SDS011;13153;52.316;21.166;2023-10-13T08:29:01;13.90;;;8.10;;
25207;SDS011;13153;52.316;21.166;2023-10-13T08:31:43;20.85;;;10.05;;
25207;SDS011;13153;52.316;21.166;2023-10-13T08:34:14;17.50;;;9.27;;
25207;SDS011;13153;52.316;21.166;2023-10-13T08:36:48;17.92;;;9.02;;
25207;SDS011;13153;52.316;21.166;2023-10-13T08:39:14;25.15;;;14.02;;
25207;SDS011;13153;52.316;21.166;2023-10-13T08:41:58;25.35;;;13.02;;
25207;SDS011;13153;52.316;21.166;2023-10-13T08:44:45;25.25;;;14.23;;
25207;SDS011;13153;52.316;21.166;2023-10-13T08:47:14;23.88;;;11.93;;
25207;SDS011;13153;52.316;21.166;2023-10-13T08:49:44;15.82;;;8.65;;
25207;SDS011;13153;52.316;21.166;2023-10-13T08:52:17;13.52;;;8.70;;
25207;SDS011;13153;52.316;21.166;2023-10-13T08:55:05;13.32;;;7.22;;
25207;SDS011;13153;52.316;21.166;2023-10-13T08:57:58;21.25;;;7.80;;
25207;SDS011;13153;52.316;21.166;2023-10-13T09:00:28;14.43;;;7.25;;
25207;SDS011;13153;52.316;21.166;2023-10-13T09:03:12;14.82;;;7.18;;
25207;SDS011;13153;52.316;21.166;2023-10-13T09:05:55;18.05;;;8.13;;
25207;SDS011;13153;52.316;21.166;2023-10-13T09:08:27;17.70;;;8.23;;
25207;SDS011;13153;52.316;21.166;2023-10-13T09:11:30;19.38;;;8.63;;
25207;SDS011;13153;52.316;21.166;2023-10-13T09:14:13;15.48;;;8.45;;
25207;SDS011;13153;52.316;21.166;2023-10-13T09:20:08;16.73;;;8.52;;
25207;SDS011;13153;52.316;21.166;2023-10-13T09:22:47;19.67;;;8.90;;
25207;SDS011;13153;52.316;21.166;2023-10-13T09:26:04;18.00;;;8.40;;
25207;SDS011;13153;52.316;21.166;2023-10-13T09:28:19;18.92;;;8.10;;
25207;SDS011;13153;52.316;21.166;2023-10-13T09:30:53;20.65;;;7.72;;
25207;SDS011;13153;52.316;21.166;2023-10-13T09:33:27;15.73;;;7.35;;
25207;SDS011;13153;52.316;21.166;2023-10-13T09:36:15;19.27;;;7.47;;
25207;SDS011;13153;52.316;21.166;2023-10-13T09:38:42;16.58;;;7.43;;
25207;SDS011;13153;52.316;21.166;2023-10-13T09:41:36;17.92;;;6.93;;
25207;SDS011;13153;52.316;21.166;2023-10-13T09:44:05;21.92;;;7.43;;
25207;SDS011;13153;52.316;21.166;2023-10-13T09:46:33;20.33;;;7.95;;
25207;SDS011;13153;52.316;21.166;2023-10-13T09:49:12;23.00;;;7.47;;
25207;SDS011;13153;52.316;21.166;2023-10-13T09:51:59;22.98;;;7.93;;
25207;SDS011;13153;52.316;21.166;2023-10-13T09:54:29;24.50;;;7.88;;
25207;SDS011;13153;52.316;21.166;2023-10-13T09:57:16;20.88;;;7.55;;
25207;SDS011;13153;52.316;21.166;2023-10-13T09:59:50;21.95;;;8.07;;
25207;SDS011;13153;52.316;21.166;2023-10-13T10:02:31;22.02;;;8.43;;
25207;SDS011;13153;52.316;21.166;2023-10-13T10:05:00;20.85;;;7.82;;
25207;SDS011;13153;52.316;21.166;2023-10-13T10:07:54;19.30;;;7.88;;
25207;SDS011;13153;52.316;21.166;2023-10-13T10:10:26;21.98;;;7.57;;
25207;SDS011;13153;52.316;21.166;2023-10-13T10:13:31;24.23;;;8.55;;
25207;SDS011;13153;52.316;21.166;2023-10-13T10:16:12;22.33;;;9.13;;
25207;SDS011;13153;52.316;21.166;2023-10-13T10:18:59;27.02;;;8.60;;
25207;SDS011;13153;52.316;21.166;2023-10-13T10:21:35;24.00;;;8.52;;
25207;SDS011;13153;52.316;21.166;2023-10-13T10:24:15;20.73;;;8.43;;
25207;SDS011;13153;52.316;21.166;2023-10-13T10:26:55;19.33;;;8.02;;
25207;SDS011;13153;52.316;21.166;2023-10-13T10:29:21;16.42;;;7.82;;
25207;SDS011;13153;52.316;21.166;2023-10-13T10:31:48;20.88;;;8.13;;
25207;SDS011;13153;52.316;21.166;2023-10-13T10:34:14;25.20;;;8.60;;
25207;SDS011;13153;52.316;21.166;2023-10-13T10:36:47;19.20;;;9.15;;
25207;SDS011;13153;52.316;21.166;2023-10-13T10:39:19;23.65;;;9.88;;
25207;SDS011;13153;52.316;21.166;2023-10-13T10:41:46;23.02;;;8.98;;
25207;SDS011;13153;52.316;21.166;2023-10-13T10:44:18;17.95;;;7.57;;
25207;SDS011;13153;52.316;21.166;2023-10-13T10:46:51;27.10;;;8.48;;
25207;SDS011;13153;52.316;21.166;2023-10-13T10:49:21;20.20;;;8.23;;
25207;SDS011;13153;52.316;21.166;2023-10-13T10:51:58;17.23;;;7.63;;
25207;SDS011;13153;52.316;21.166;2023-10-13T10:54:29;20.33;;;7.65;;
25207;SDS011;13153;52.316;21.166;2023-10-13T10:56:58;15.30;;;7.47;;
25207;SDS011;13153;52.316;21.166;2023-10-13T10:59:42;14.23;;;7.38;;
25207;SDS011;13153;52.316;21.166;2023-10-13T11:02:10;18.25;;;8.10;;
25207;SDS011;13153;52.316;21.166;2023-10-13T11:04:40;20.92;;;7.97;;
25207;SDS011;13153;52.316;21.166;2023-10-13T11:07:24;18.13;;;7.82;;
25207;SDS011;13153;52.316;21.166;2023-10-13T11:09:52;15.98;;;7.70;;
25207;SDS011;13153;52.316;21.166;2023-10-13T11:12:29;18.63;;;7.68;;
25207;SDS011;13153;52.316;21.166;2023-10-13T11:15:01;18.58;;;7.25;;
25207;SDS011;13153;52.316;21.166;2023-10-13T11:17:54;16.23;;;7.45;;
25207;SDS011;13153;52.316;21.166;2023-10-13T11:20:20;15.82;;;7.00;;
25207;SDS011;13153;52.316;21.166;2023-10-13T11:23:00;15.35;;;7.10;;
25207;SDS011;13153;52.316;21.166;2023-10-13T11:25:30;17.73;;;7.47;;
25207;SDS011;13153;52.316;21.166;2023-10-13T11:28:12;14.27;;;7.47;;
25207;SDS011;13153;52.316;21.166;2023-10-13T11:30:43;16.15;;;7.93;;
25207;SDS011;13153;52.316;21.166;2023-10-13T11:33:21;16.13;;;8.10;;
25207;SDS011;13153;52.316;21.166;2023-10-13T11:35:53;18.50;;;7.50;;
25207;SDS011;13153;52.316;21.166;2023-10-13T11:38:24;16.98;;;7.72;;
25207;SDS011;13153;52.316;21.166;2023-10-13T11:41:13;16.65;;;7.57;;
25207;SDS011;13153;52.316;21.166;2023-10-13T11:43:41;18.55;;;7.32;;
25207;SDS011;13153;52.316;21.166;2023-10-13T11:46:16;18.02;;;7.53;;
25207;SDS011;13153;52.316;21.166;2023-10-13T11:49:05;15.70;;;7.63;;
25207;SDS011;13153;52.316;21.166;2023-10-13T11:51:33;14.85;;;7.05;;
25207;SDS011;13153;52.316;21.166;2023-10-13T11:53:58;15.75;;;7.47;;
25207;SDS011;13153;52.316;21.166;2023-10-13T11:56:24;14.73;;;7.72;;
25207;SDS011;13153;52.316;21.166;2023-10-13T11:58:50;13.73;;;7.22;;
25207;SDS011;13153;52.316;21.166;2023-10-13T12:01:17;15.38;;;7.75;;
25207;SDS011;13153;52.316;21.166;2023-10-13T12:03:43;18.55;;;8.15;;
25207;SDS011;13153;52.316;21.166;2023-10-13T12:06:31;16.27;;;7.93;;
25207;SDS011;13153;52.316;21.166;2023-10-13T12:11:57;19.45;;;7.72;;
25207;SDS011;13153;52.316;21.166;2023-10-13T12:14:25;18.40;;;7.60;;
25207;SDS011;13153;52.316;21.166;2023-10-13T12:17:17;18.30;;;8.13;;
25207;SDS011;13153;52.316;21.166;2023-10-13T12:19:51;14.48;;;7.25;;
25207;SDS011;13153;52.316;21.166;2023-10-13T12:22:17;14.85;;;7.20;;
25207;SDS011;13153;52.316;21.166;2023-10-13T12:24:53;16.65;;;7.70;;
25207;SDS011;13153;52.316;21.166;2023-10-13T12:27:22;17.17;;;7.60;;
25207;SDS011;13153;52.316;21.166;2023-10-13T12:30:00;14.85;;;7.00;;
25207;SDS011;13153;52.316;21.166;2023-10-13T12:32:33;17.63;;;7.53;;
25207;SDS011;13153;52.316;21.166;2023-10-13T12:34:59;15.18;;;7.13;;
25207;SDS011;13153;52.316;21.166;2023-10-13T12:37:28;16.98;;;7.70;;
25207;SDS011;13153;52.316;21.166;2023-10-13T12:42:57;18.95;;;8.18;;
25207;SDS011;13153;52.316;21.166;2023-10-13T12:45:42;17.00;;;7.32;;
25207;SDS011;13153;52.316;21.166;2023-10-13T12:48:29;18.05;;;7.72;;
25207;SDS011;13153;52.316;21.166;2023-10-13T12:51:15;21.02;;;8.05;;
25207;SDS011;13153;52.316;21.166;2023-10-13T12:53:56;15.68;;;7.45;;
25207;SDS011;13153;52.316;21.166;2023-10-13T12:58:56;17.70;;;8.40;;
25207;SDS011;13153;52.316;21.166;2023-10-13T13:01:22;20.38;;;8.18;;
25207;SDS011;13153;52.316;21.166;2023-10-13T13:03:57;20.73;;;7.85;;
25207;SDS011;13153;52.316;21.166;2023-10-13T13:06:27;20.02;;;7.63;;
25207;SDS011;13153;52.316;21.166;2023-10-13T13:08:55;20.02;;;8.38;;
25207;SDS011;13153;52.316;21.166;2023-10-13T13:11:23;19.33;;;8.30;;
25207;SDS011;13153;52.316;21.166;2023-10-13T13:13:50;18.63;;;8.52;;
25207;SDS011;13153;52.316;21.166;2023-10-13T13:16:17;15.27;;;7.75;;
25207;SDS011;13153;52.316;21.166;2023-10-13T13:18:45;17.38;;;9.05;;
25207;SDS011;13153;52.316;21.166;2023-10-13T13:21:11;15.75;;;8.73;;
25207;SDS011;13153;52.316;21.166;2023-10-13T13:23:38;19.65;;;8.88;;
25207;SDS011;13153;52.316;21.166;2023-10-13T13:26:05;17.67;;;8.73;;
25207;SDS011;13153;52.316;21.166;2023-10-13T13:28:44;16.02;;;7.55;;
25207;SDS011;13153;52.316;21.166;2023-10-13T13:31:10;12.68;;;7.85;;
25207;SDS011;13153;52.316;21.166;2023-10-13T13:33:40;15.18;;;8.32;;
25207;SDS011;13153;52.316;21.166;2023-10-13T13:36:08;18.40;;;8.35;;
25207;SDS011;13153;52.316;21.166;2023-10-13T13:38:44;18.35;;;8.20;;
25207;SDS011;13153;52.316;21.166;2023-10-13T13:41:14;21.35;;;8.63;;
25207;SDS011;13153;52.316;21.166;2023-10-13T13:44:00;18.45;;;8.25;;
25207;SDS011;13153;52.316;21.166;2023-10-13T13:46:46;17.20;;;7.70;;
25207;SDS011;13153;52.316;21.166;2023-10-13T13:49:11;15.10;;;7.85;;
25207;SDS011;13153;52.316;21.166;2023-10-13T13:51:46;17.27;;;8.43;;
25207;SDS011;13153;52.316;21.166;2023-10-13T13:54:19;14.68;;;8.05;;
25207;SDS011;13153;52.316;21.166;2023-10-13T13:56:45;14.18;;;7.38;;
25207;SDS011;13153;52.316;21.166;2023-10-13T13:59:11;14.15;;;7.60;;
25207;SDS011;13153;52.316;21.166;2023-10-13T14:01:41;16.00;;;8.48;;
25207;SDS011;13153;52.316;21.166;2023-10-13T14:04:10;19.25;;;8.52;;
25207;SDS011;13153;52.316;21.166;2023-10-13T14:06:36;16.73;;;7.95;;
25207;SDS011;13153;52.316;21.166;2023-10-13T14:09:05;16.77;;;8.27;;
25207;SDS011;13153;52.316;21.166;2023-10-13T14:11:39;13.32;;;7.95;;
25207;SDS011;13153;52.316;21.166;2023-10-13T14:16:54;15.48;;;7.78;;
25207;SDS011;13153;52.316;21.166;2023-10-13T14:19:33;17.23;;;8.60;;
25207;SDS011;13153;52.316;21.166;2023-10-13T14:22:05;18.30;;;8.80;;
25207;SDS011;13153;52.316;21.166;2023-10-13T14:24:32;18.20;;;8.90;;
25207;SDS011;13153;52.316;21.166;2023-10-13T14:27:01;20.08;;;8.02;;
25207;SDS011;13153;52.316;21.166;2023-10-13T14:29:36;15.25;;;8.13;;
25207;SDS011;13153;52.316;21.166;2023-10-13T14:32:08;14.65;;;8.00;;
25207;SDS011;13153;52.316;21.166;2023-10-13T14:34:40;16.27;;;8.77;;
25207;SDS011;13153;52.316;21.166;2023-10-13T14:37:07;20.98;;;8.85;;
25207;SDS011;13153;52.316;21.166;2023-10-13T14:39:37;18.15;;;8.73;;
25207;SDS011;13153;52.316;21.166;2023-10-13T14:42:06;12.68;;;7.93;;
25207;SDS011;13153;52.316;21.166;2023-10-13T14:44:33;12.55;;;7.95;;
25207;SDS011;13153;52.316;21.166;2023-10-13T14:47:00;15.70;;;8.55;;
25207;SDS011;13153;52.316;21.166;2023-10-13T14:49:27;17.23;;;8.43;;
25207;SDS011;13153;52.316;21.166;2023-10-13T14:51:53;17.00;;;8.02;;
25207;SDS011;13153;52.316;21.166;2023-10-13T14:54:20;16.95;;;8.38;;
25207;SDS011;13153;52.316;21.166;2023-10-13T14:57:02;18.17;;;8.38;;
25207;SDS011;13153;52.316;21.166;2023-10-13T14:59:28;14.85;;;8.65;;
25207;SDS011;13153;52.316;21.166;2023-10-13T15:01:58;16.38;;;8.73;;
25207;SDS011;13153;52.316;21.166;2023-10-13T15:04:26;17.98;;;8.73;;
25207;SDS011;13153;52.316;21.166;2023-10-13T15:06:53;18.42;;;8.57;;
25207;SDS011;13153;52.316;21.166;2023-10-13T15:09:20;17.30;;;9.07;;
25207;SDS011;13153;52.316;21.166;2023-10-13T15:11:49;16.88;;;9.23;;
25207;SDS011;13153;52.316;21.166;2023-10-13T15:14:18;14.60;;;8.70;;
25207;SDS011;13153;52.316;21.166;2023-10-13T15:16:45;17.52;;;9.07;;
25207;SDS011;13153;52.316;21.166;2023-10-13T15:19:11;16.23;;;9.55;;
25207;SDS011;13153;52.316;21.166;2023-10-13T15:21:37;17.45;;;9.07;;
25207;SDS011;13153;52.316;21.166;2023-10-13T15:24:05;14.25;;;8.10;;
25207;SDS011;13153;52.316;21.166;2023-10-13T15:26:41;21.20;;;9.13;;
25207;SDS011;13153;52.316;21.166;2023-10-13T15:29:16;19.17;;;8.85;;
25207;SDS011;13153;52.316;21.166;2023-10-13T15:31:43;16.33;;;9.07;;
25207;SDS011;13153;52.316;21.166;2023-10-13T15:34:25;11.88;;;8.25;;
25207;SDS011;13153;52.316;21.166;2023-10-13T15:36:52;17.20;;;8.98;;